createdAt,value
2023-05-04T00:12:58.721Z,76.4
2023-05-04T00:28:32.815Z,76.9
2023-05-04T00:44:07.052Z,77.3
2023-05-04T00:59:41.151Z,78.7
2023-05-04T01:15:15.129Z,79.2
2023-05-04T01:30:49.288Z,80.9
2023-05-04T01:46:23.606Z,79.5
2023-05-04T02:01:57.866Z,81.3
2023-05-04T02:17:32.322Z,82
2023-05-04T02:33:06.625Z,83.6
2023-05-04T02:48:40.786Z,83.4
2023-05-04T03:04:15.003Z,83.7
2023-05-04T03:19:49.107Z,82.5
2023-05-04T03:35:26.190Z,88
2023-05-04T03:51:00.175Z,83.7
2023-05-04T04:06:34.225Z,83.2
2023-05-04T04:22:08.348Z,82
2023-05-04T04:37:42.377Z,82.4
2023-05-04T04:53:16.385Z,81.5
2023-05-04T05:08:50.304Z,80.9
2023-05-04T05:24:26.403Z,77.5
2023-05-04T05:40:00.377Z,74.8
2023-05-04T05:55:34.379Z,73.2
2023-05-04T06:11:08.382Z,70.9
2023-05-04T06:26:42.385Z,70
2023-05-04T06:42:16.571Z,68.7
2023-05-04T06:57:50.785Z,65.1
2023-05-04T07:13:24.952Z,62.5
2023-05-04T07:28:59.092Z,61.1
2023-05-04T07:44:33.158Z,59.6
2023-05-04T08:00:08.093Z,57.3
2023-05-04T08:15:42.498Z,49.7
2023-05-04T08:31:16.896Z,49
2023-05-04T08:46:51.472Z,48.5
2023-05-04T09:02:26.562Z,48.6
2023-05-04T09:18:03.267Z,46.3
2023-05-04T09:33:37.517Z,44.9
2023-05-04T09:49:11.974Z,44.2
2023-05-04T10:04:46.161Z,42.2
2023-05-04T10:20:20.338Z,41.2
2023-05-04T10:35:54.737Z,38.1
2023-05-04T10:51:50.084Z,37.5
2023-05-04T11:07:24.442Z,35.9
2023-05-04T11:22:58.605Z,37.7
2023-05-04T11:38:32.947Z,36.8
2023-05-04T11:54:07.383Z,36.3
2023-05-04T12:09:41.600Z,34.3
2023-05-04T12:25:16.070Z,34.3
2023-05-04T12:40:55.470Z,33.6
2023-05-04T12:56:29.711Z,34.6
2023-05-04T13:12:04.191Z,33.4
2023-05-04T13:27:38.852Z,31.8
2023-05-04T13:43:13.379Z,32.3
2023-05-04T13:58:47.725Z,33
2023-05-04T14:14:22.016Z,32.3
2023-05-04T14:29:56.366Z,32.2
2023-05-04T14:45:30.687Z,32.2
2023-05-04T15:01:04.974Z,33
2023-05-04T15:16:39.462Z,33.3
2023-05-04T15:32:13.890Z,34
2023-05-04T15:47:48.228Z,34.7
2023-05-04T16:03:23.228Z,35.3
2023-05-04T16:18:57.721Z,35.7
2023-05-04T16:34:31.902Z,36.1
2023-05-04T16:50:06.813Z,36.9
2023-05-04T17:05:41.470Z,38.6
2023-05-04T17:21:15.678Z,39.7
2023-05-04T17:36:49.799Z,40.7
2023-05-04T17:52:23.903Z,41.6
2023-05-04T18:07:58.043Z,42.5
2023-05-04T18:23:32.222Z,43.9
2023-05-04T18:39:06.425Z,44.7
2023-05-04T18:54:40.616Z,46.9
2023-05-04T19:10:14.714Z,46.7
2023-05-04T19:26:00.829Z,47.3
2023-05-04T19:41:34.918Z,47.8
2023-05-04T19:57:08.996Z,49.6
2023-05-04T20:12:43.258Z,50.9
2023-05-04T20:28:17.456Z,52.4
2023-05-04T20:43:51.509Z,55.5
2023-05-04T20:59:25.551Z,55.5
2023-05-04T21:14:59.605Z,56.7
2023-05-04T21:30:34.082Z,58.2
2023-05-04T21:46:08.144Z,58.9
2023-05-04T22:01:42.271Z,60.6
2023-05-04T22:17:16.343Z,62.1
2023-05-04T22:32:50.503Z,64.2
2023-05-04T22:48:24.642Z,66.6
2023-05-04T23:03:58.912Z,68.3
2023-05-04T23:19:33.045Z,69.3
2023-05-04T23:35:07.094Z,70.5
2023-05-04T23:50:41.107Z,72
